Bei Facebook empfehlenBei Twitter postenGoogle plusPinterest

Das Wetter im Erzgebirge am 20.02.2017

Wetter und Klima am 20.02.2017 Holzhau im Erzgebirge (630m ü.NN)
Letzte gemessene Temperatur und Uhrzeit der Messung23:45:00 Uhr4.10 °C
Temperatur (Maximum / Höchstwert) und Uhrzeit der Messung12:45:00 Uhr6.20 °C
Temperatur (Minimum / Tiefstwert) und Uhrzeit der Messung00:00:000.90 °C
Errechneter Absolutwert der Temperaturschwankungen zwischen Tmin und Tmax des Tages5.30 K
Errechnete Tagesmitteltemperatur3.19375 °C
Gesamt - Niederschlag des Tages (in flüssiger Form)4.66 Liter / m²
Luftdruck (Maximum / Höchstwert) und Zeitpunkt der Messung01:00:00 Uhr1014.80 hPa
Luftdruck (Minimum / Tiefstwert) und Zeitpunkt der Messung23:45:00 Uhr1007.00 hPa
Errechneter Absolutwert der Luftdruckschwankungen des Tages7.80 hPa
Höchste gemessene Windgeschwindigkeit und Uhrzeit der Messung14:15:00 Uhr15.12 km/h
Errechnete Windhäufigkeit in Relation zu den Messwerten des Tages50.00000 %
Niedrigste Windkühle (Windchill) und Zeitpunkt der Messung09:15:00 Uhr-0.90 °C
Taupunkt (Maximum / Höchstwert) und Uhrzeit der Messung23:15:00 Uhr3.50 °C
Taupunkt (Minimum / Tiefstwert) und Uhrzeit der Messung00:00:00-0.20 °C
Anzahl der automatisch eingelesenen Messwerte 96

Detaillierte Wetter- und Klima- Messwerte für den 20.02.2017 in Holzhau im Erzgebirge (630m ü.NN)
ZeitTemperaturLuftdruckRel. LuftfeuchteWindWindrichtungWindchillTaupunktNiederschlag l/m²
23:45:004.10 °C1007.00 hPa95.00 %1.08 km/hWSW4.10 °C3.40 °C4.66
23:30:004.10 °C1007.10 hPa95.00 %5.40 km/hNW2.90 °C3.40 °C4.66
23:15:004.20 °C1007.00 hPa95.00 %3.50 °C4.66
23:00:004.30 °C1007.10 hPa94.00 %2.16 km/hWNW4.30 °C3.40 °C4.66
22:45:004.20 °C1007.20 hPa94.00 %3.30 °C4.66
22:30:004.10 °C1007.30 hPa94.00 %8.64 km/hSSW1.90 °C3.20 °C4.15
22:15:004.10 °C1007.30 hPa94.00 %3.20 °C4.15
22:00:004.10 °C1007.20 hPa94.00 %3.60 km/hWNW4.10 °C3.20 °C4.15
21:45:003.90 °C1007.50 hPa94.00 %1.44 km/hW3.90 °C3.00 °C4.15
21:30:003.80 °C1007.70 hPa94.00 %2.90 °C4.15
21:15:003.80 °C1007.80 hPa94.00 %2.90 °C4.15
21:00:003.60 °C1007.90 hPa93.00 %2.88 km/hNNW3.60 °C2.60 °C4.15
20:45:003.60 °C1008.00 hPa93.00 %2.60 °C4.15
20:30:003.60 °C1008.40 hPa93.00 %1.80 km/hNW3.60 °C2.60 °C3.63
20:15:003.40 °C1008.20 hPa93.00 %2.40 °C3.63
20:00:003.40 °C1008.20 hPa93.00 %2.40 °C3.63
19:45:003.30 °C1008.30 hPa92.00 %2.10 °C3.63
19:30:003.30 °C1008.30 hPa92.00 %2.10 °C3.11
19:15:003.40 °C1008.50 hPa92.00 %2.20 °C3.11
19:00:003.40 °C1008.60 hPa92.00 %1.80 km/hWNW3.40 °C2.20 °C2.07
18:45:003.40 °C1008.50 hPa91.00 %2.10 °C1.56
18:30:003.40 °C1008.40 hPa91.00 %2.10 °C1.04
18:15:003.50 °C1008.20 hPa90.00 %3.96 km/hW3.50 °C2.00 °C1.04
18:00:003.50 °C1008.20 hPa90.00 %7.20 km/hW1.60 °C2.00 °C0.52
17:45:003.50 °C1008.40 hPa89.00 %7.92 km/hNNW1.40 °C1.90 °C0.52
17:30:003.60 °C1008.30 hPa87.00 %8.64 km/hWSW1.30 °C1.60 °C0.52
17:15:003.80 °C1008.50 hPa86.00 %5.04 km/hW2.70 °C1.70 °C0.52
17:00:004.10 °C1008.60 hPa84.00 %1.60 °C0.52
16:45:004.40 °C1008.70 hPa83.00 %3.96 km/hW4.40 °C1.80 °C0.52
16:30:004.40 °C1008.90 hPa83.00 %1.44 km/hW4.40 °C1.80 °C0.52
16:15:004.40 °C1009.30 hPa82.00 %1.08 km/hWNW4.40 °C1.60 °C0.52
16:00:004.40 °C1009.50 hPa82.00 %1.60 °C0.52
15:45:004.40 °C1009.60 hPa81.00 %0.72 km/hWSW4.40 °C1.40 °C0.52
15:30:004.50 °C1010.10 hPa80.00 %2.88 km/hNNW4.50 °C1.40 °C0.52
15:15:004.60 °C1010.50 hPa79.00 %0.36 km/hW4.60 °C1.30 °C0.52
15:00:005.00 °C1010.70 hPa77.00 %2.16 km/hWNW5.00 °C1.30 °C0.52
14:45:005.40 °C1010.80 hPa76.00 %4.68 km/hW5.40 °C1.50 °C0.52
14:30:005.40 °C1010.70 hPa76.00 %1.44 km/hW5.40 °C1.50 °C0.52
14:15:005.40 °C1010.80 hPa76.00 %15.12 km/hSW2.20 °C1.50 °C0.52
14:00:005.30 °C1011.10 hPa75.00 %14.04 km/hWSW2.30 °C1.20 °C0.52
13:45:005.80 °C1011.50 hPa74.00 %4.68 km/hWNW5.80 °C1.50 °C0.52
13:30:005.90 °C1011.50 hPa73.00 %3.96 km/hWNW5.90 °C1.40 °C0.52
13:15:005.90 °C1011.60 hPa73.00 %8.28 km/hWNW4.10 °C1.40 °C0.52
13:00:006.10 °C1012.00 hPa73.00 %4.32 km/hW6.10 °C1.60 °C0.52
12:45:006.20 °C1012.20 hPa73.00 %2.88 km/hWSW6.20 °C1.70 °C0.52
12:30:006.10 °C1012.30 hPa75.00 %6.48 km/hWSW4.80 °C2.00 °C0.52
12:15:005.40 °C1012.20 hPa77.00 %1.70 °C0.52
12:00:005.10 °C1012.60 hPa78.00 %1.60 °C0.52
11:45:005.20 °C1012.80 hPa78.00 %3.60 km/hSW5.20 °C1.70 °C0.52
11:30:005.10 °C1012.70 hPa79.00 %5.76 km/hSSW3.90 °C1.80 °C0.52
11:15:004.80 °C1012.90 hPa81.00 %1.80 °C0.52
11:00:004.60 °C1013.40 hPa81.00 %11.52 km/hSSW1.90 °C1.60 °C0.52
10:45:004.20 °C1013.50 hPa82.00 %3.60 km/hSSW4.20 °C1.40 °C0.52
10:30:004.10 °C1013.40 hPa82.00 %1.44 km/hSW4.10 °C1.30 °C0.52
10:15:004.40 °C1013.40 hPa81.00 %6.84 km/hWSW2.80 °C1.40 °C0.52
10:00:004.10 °C1013.40 hPa84.00 %10.80 km/hW1.40 °C1.60 °C0.52
09:45:003.40 °C1013.50 hPa86.00 %3.60 km/hWNW3.40 °C1.30 °C0.52
09:30:002.90 °C1013.90 hPa88.00 %1.10 °C0.52
09:15:002.60 °C1013.60 hPa89.00 %13.32 km/hWNW-0.90 °C1.00 °C0.52
09:00:002.50 °C1013.80 hPa89.00 %10.08 km/hSW-0.30 °C0.90 °C0.52
08:45:002.40 °C1013.80 hPa89.00 %3.96 km/hNW2.40 °C0.80 °C0.52
08:30:002.30 °C1013.60 hPa90.00 %0.80 °C0.52
08:15:002.10 °C1013.50 hPa91.00 %0.80 °C0.52
08:00:001.80 °C1013.90 hPa92.00 %7.56 km/hN-0.50 °C0.60 °C0.52
07:45:001.60 °C1013.90 hPa92.00 %0.40 °C0.52
07:30:001.50 °C1014.00 hPa92.00 %1.44 km/hW1.50 °C0.30 °C0.52
07:15:001.50 °C1013.90 hPa92.00 %0.30 °C0.52
07:00:001.60 °C1013.90 hPa92.00 %0.40 °C0.52
06:45:001.60 °C1014.10 hPa92.00 %1.08 km/hW1.60 °C0.40 °C0.52
06:30:001.60 °C1014.00 hPa92.00 %0.40 °C0.52
06:15:001.60 °C1014.00 hPa92.00 %0.40 °C0.52
06:00:001.50 °C1013.80 hPa93.00 %3.96 km/hSW1.50 °C0.50 °C0.52
05:45:001.50 °C1013.80 hPa93.00 %0.50 °C0.52
05:30:001.40 °C1014.10 hPa94.00 %3.60 km/hW1.40 °C0.50 °C0.52
05:15:001.30 °C1014.40 hPa94.00 %0.40 °C0.52
05:00:001.30 °C1014.50 hPa94.00 %0.40 °C0.52
04:45:001.30 °C1014.50 hPa94.00 %0.40 °C0.52
04:30:001.30 °C1014.40 hPa94.00 %0.40 °C0.52
04:15:001.30 °C1014.30 hPa93.00 %0.30 °C0.52
04:00:001.30 °C1014.20 hPa93.00 %0.30 °C0.52
03:45:001.30 °C1014.20 hPa93.00 %0.30 °C0.52
03:30:001.20 °C1014.30 hPa93.00 %1.44 km/hW1.20 °C0.20 °C0.52
03:15:001.20 °C1014.20 hPa93.00 %0.20 °C0.52
03:00:001.20 °C1014.20 hPa93.00 %0.20 °C0.52
02:45:001.20 °C1014.30 hPa93.00 %0.20 °C0.52
02:30:001.20 °C1014.40 hPa93.00 %0.20 °C0.52
02:15:001.20 °C1014.40 hPa93.00 %0.20 °C0.52
02:00:001.20 °C1014.50 hPa93.00 %0.20 °C0.52
01:45:001.10 °C1014.50 hPa92.00 %-0.10 °C0.52
01:30:001.20 °C1014.50 hPa92.00 %0.00 °C0.52
01:15:001.10 °C1014.70 hPa92.00 %-0.10 °C0.52
01:00:001.10 °C1014.80 hPa92.00 %-0.10 °C0.52
00:45:001.10 °C1014.80 hPa92.00 %-0.10 °C0.52
00:30:001.10 °C1014.50 hPa92.00 %-0.10 °C0.52
00:15:001.00 °C1014.50 hPa92.00 %-0.10 °C0.52
00:00:000.90 °C1014.70 hPa92.00 %-0.20 °C 

Permanenter Link zu dieser Seite: Wetter im Erzgebirge am 20.02.2017
Performance-Info: Die Erstellung der Seite / Statistik(en) / Tabelle(n) erforderte 5 Datenbankserver-Abfrage(n) und dauerte 101 Millisekunden. (Dieser Messwert ist von der Gesamt-Auslastung des Servers abhängig.)
Erzgebirge - Wetter | Erzgebirge - Wetter (Mobilgeräte) | Komplette Klimadatenbank